Time,TemperatureF,DewpointF,PressureIn,WindDirection,WindDirectionDegrees,WindSpeedMPH,WindSpeedGustMPH,Humidity,HourlyPrecipIn,Conditions,Clouds,dailyrainin,SolarRadiationWatts/m^2,SoftwareType,DateUTC
2013-07-25 00:00:00,71.6,67.5,29.84,SSW,204,0.0,2.0,87,0.00,SCT,SCT,0.00,0.0,WeatherDisplay:10.37,2013-07-25 04:00:00,
2013-07-25 00:05:00,71.6,67.5,29.84,SSW,204,0.0,2.0,87,0.00,SCT,SCT,0.00,0.0,WeatherDisplay:10.37,2013-07-25 04:05:00,
2013-07-25 00:10:00,71.5,67.4,29.85,SSW,200,0.0,3.0,87,0.00,SCT,SCT,0.00,0.0,WeatherDisplay:10.37,2013-07-25 04:10:00,
2013-07-25 00:15:00,71.3,67.2,29.85,SSW,198,1.0,4.0,87,0.00,SCT,SCT,0.00,0.0,WeatherDisplay:10.37,2013-07-25 04:15:00,
2013-07-25 00:20:00,71.2,67.1,29.85,SSW,197,0.0,2.0,87,0.00,SCT,SCT,0.00,0.0,WeatherDisplay:10.37,2013-07-25 04:20:00,
2013-07-25 00:25:00,71.1,67.0,29.85,SSW,197,0.0,0.0,87,0.00,SCT,SCT,0.00,0.0,WeatherDisplay:10.37,2013-07-25 04:25:00,
2013-07-25 00:30:00,71.0,66.9,29.85,SSW,197,0.0,0.0,87,0.00,SCT,SCT,0.00,0.0,WeatherDisplay:10.37,2013-07-25 04:30:00,
2013-07-25 00:35:00,70.9,66.8,29.85,SSW,197,0.0,0.0,87,0.00,SCT,SCT,0.00,0.0,WeatherDisplay:10.37,2013-07-25 04:35:00,
2013-07-25 00:40:00,70.9,66.8,29.85,SSW,197,0.0,0.0,87,0.00,SCT,SCT,0.00,0.0,WeatherDisplay:10.37,2013-07-25 04:40:00,
2013-07-25 00:45:00,70.8,66.7,29.85,SSW,197,0.0,0.0,87,0.00,SCT,SCT,0.00,0.0,WeatherDisplay:10.37,2013-07-25 04:45:00,
2013-07-25 00:50:00,70.8,67.1,29.85,SSW,197,0.0,0.0,88,0.00,SCT,SCT,0.00,0.0,WeatherDisplay:10.37,2013-07-25 04:50:00,
2013-07-25 00:55:00,70.7,67.0,29.85,SSW,197,0.0,0.0,88,0.00,SCT,SCT,0.00,0.0,WeatherDisplay:10.37,2013-07-25 04:55:00,
2013-07-25 01:00:00,70.6,66.9,29.85,SSW,197,0.0,0.0,88,0.00,SCT,SCT,0.00,0.0,WeatherDisplay:10.37,2013-07-25 05:00:00,
2013-07-25 01:05:00,70.6,66.8,29.85,SSW,197,0.0,0.0,88,0.00,SCT,SCT,0.00,0.0,WeatherDisplay:10.37,2013-07-25 05:05:00,
2013-07-25 01:10:00,70.4,66.7,29.84,SSW,197,0.0,1.0,88,0.00,SCT,SCT,0.00,0.0,WeatherDisplay:10.37,2013-07-25 05:10:00,
2013-07-25 01:15:00,70.4,66.7,29.84,SSW,197,0.0,1.0,88,0.00,SCT,SCT,0.00,0.0,WeatherDisplay:10.37,2013-07-25 05:15:00,
2013-07-25 01:20:00,70.3,66.6,29.84,SSW,197,0.0,1.0,88,0.00,SCT,SCT,0.00,0.0,WeatherDisplay:10.37,2013-07-25 05:20:00,
2013-07-25 01:25:00,70.2,66.5,29.83,SSW,197,0.0,0.0,88,0.00,SCT,SCT,0.00,0.0,WeatherDisplay:10.37,2013-07-25 05:25:00,
2013-07-25 01:30:00,70.1,66.4,29.83,SSW,197,0.0,0.0,88,0.00,SCT,SCT,0.00,0.0,WeatherDisplay:10.37,2013-07-25 05:30:00,
2013-07-25 01:35:00,70.0,66.2,29.83,SSW,197,0.0,0.0,88,0.00,SCT,SCT,0.00,0.0,WeatherDisplay:10.37,2013-07-25 05:35:00,
2013-07-25 01:40:00,69.9,66.2,29.83,SSW,197,0.0,0.0,88,0.00,SCT,SCT,0.00,0.0,WeatherDisplay:10.37,2013-07-25 05:40:00,
2013-07-25 01:45:00,69.8,66.1,29.83,SSW,197,0.0,0.0,88,0.00,SCT,SCT,0.00,0.0,WeatherDisplay:10.37,2013-07-25 05:45:00,
2013-07-25 01:50:00,69.8,66.0,29.83,SSW,196,0.0,0.0,88,0.00,SCT,SCT,0.00,0.0,WeatherDisplay:10.37,2013-07-25 05:50:00,
2013-07-25 01:55:00,69.7,66.0,29.83,SSW,197,0.0,0.0,88,0.00,SCT,SCT,0.00,0.0,WeatherDisplay:10.37,2013-07-25 05:55:00,
2013-07-25 02:00:00,69.6,65.9,29.83,SSW,197,0.0,0.0,88,0.00,SCT,SCT,0.00,0.0,WeatherDisplay:10.37,2013-07-25 06:00:00,
2013-07-25 02:05:00,69.6,66.2,29.82,SSW,197,0.0,0.0,89,0.00,SCT,SCT,0.00,0.0,WeatherDisplay:10.37,2013-07-25 06:05:00,
2013-07-25 02:10:00,69.5,66.1,29.82,SSW,197,0.0,0.0,89,0.00,SCT,SCT,0.00,0.0,WeatherDisplay:10.37,2013-07-25 06:10:00,
2013-07-25 02:15:00,69.4,66.0,29.82,SSW,197,0.0,0.0,89,0.00,SCT,SCT,0.00,0.0,WeatherDisplay:10.37,2013-07-25 06:15:00,
2013-07-25 02:20:00,69.4,66.0,29.82,SSW,197,0.0,1.0,89,0.00,SCT,SCT,0.00,0.0,WeatherDisplay:10.37,2013-07-25 06:20:00,
2013-07-25 02:25:00,69.3,65.9,29.82,SSW,197,0.0,0.0,89,0.00,SCT,SCT,0.00,0.0,WeatherDisplay:10.37,2013-07-25 06:25:00,
2013-07-25 02:30:00,69.2,65.8,29.82,SSW,197,0.0,0.0,89,0.00,SCT,SCT,0.00,0.0,WeatherDisplay:10.37,2013-07-25 06:30:00,
2013-07-25 02:35:00,69.1,65.7,29.82,SSW,197,0.0,0.0,89,0.00,SCT,SCT,0.00,0.0,WeatherDisplay:10.37,2013-07-25 06:35:00,
2013-07-25 02:45:00,69.0,65.6,29.82,SSW,197,0.0,2.0,89,0.00,SCT,SCT,0.00,0.0,WeatherDisplay:10.37,2013-07-25 06:45:00,
2013-07-25 02:50:00,69.0,65.6,29.82,SSW,197,0.0,2.0,89,0.00,SCT,SCT,0.00,0.0,WeatherDisplay:10.37,2013-07-25 06:50:00,
2013-07-25 02:55:00,69.0,65.9,29.82,SSW,197,0.0,4.0,90,0.00,SCT,SCT,0.00,0.0,WeatherDisplay:10.37,2013-07-25 06:55:00,
2013-07-25 03:00:00,68.9,65.8,29.82,SSW,197,0.0,1.0,90,0.00,SCT,SCT,0.00,0.0,WeatherDisplay:10.37,2013-07-25 07:00:00,
2013-07-25 03:05:00,68.9,65.9,29.82,SSW,197,0.0,2.0,90,0.00,SCT,SCT,0.00,0.0,WeatherDisplay:10.37,2013-07-25 07:05:00,
2013-07-25 03:10:00,68.9,65.8,29.82,SSW,197,0.0,1.0,90,0.00,SCT,SCT,0.00,0.0,WeatherDisplay:10.37,2013-07-25 07:10:00,
2013-07-25 03:15:00,68.9,65.8,29.81,SSW,197,0.0,2.0,90,0.00,SCT,SCT,0.00,0.0,WeatherDisplay:10.37,2013-07-25 07:15:00,
2013-07-25 03:20:00,68.9,65.8,29.81,SSW,197,0.0,1.0,90,0.00,SCT,SCT,0.00,0.0,WeatherDisplay:10.37,2013-07-25 07:20:00,
2013-07-25 03:25:00,68.8,65.7,29.82,SSW,197,0.0,1.0,90,0.00,SCT,SCT,0.00,0.0,WeatherDisplay:10.37,2013-07-25 07:25:00,
2013-07-25 03:30:00,68.8,65.7,29.81,SSW,197,0.0,0.0,90,0.00,SCT,SCT,0.00,0.0,WeatherDisplay:10.37,2013-07-25 07:30:00,
2013-07-25 03:35:00,68.8,65.7,29.81,SSW,197,0.0,1.0,90,0.00,SCT,SCT,0.00,0.0,WeatherDisplay:10.37,2013-07-25 07:35:00,
2013-07-25 03:40:00,68.8,65.7,29.82,SSW,197,0.0,0.0,90,0.00,SCT,SCT,0.00,0.0,WeatherDisplay:10.37,2013-07-25 07:40:00,
2013-07-25 03:45:00,68.7,65.6,29.82,SSW,197,0.0,1.0,90,0.00,SCT,SCT,0.00,0.0,WeatherDisplay:10.37,2013-07-25 07:45:00,
2013-07-25 03:50:00,68.7,65.6,29.82,SSW,197,0.0,0.0,90,0.00,SCT,SCT,0.00,0.0,WeatherDisplay:10.37,2013-07-25 07:50:00,
2013-07-25 03:55:00,68.7,66.0,29.82,SSW,197,0.0,1.0,91,0.00,SCT,SCT,0.00,0.0,WeatherDisplay:10.37,2013-07-25 07:55:00,
2013-07-25 04:00:00,68.7,65.6,29.82,SSW,197,0.0,2.0,90,0.00,SCT,SCT,0.00,0.0,WeatherDisplay:10.37,2013-07-25 08:00:00,
2013-07-25 04:05:00,68.7,65.6,29.82,SSW,197,2.0,5.0,90,0.00,SCT,SCT,0.00,0.0,WeatherDisplay:10.37,2013-07-25 08:05:00,
2013-07-25 04:10:00,68.6,65.6,29.82,SSW,197,2.0,5.0,90,0.00,SCT,SCT,0.00,0.0,WeatherDisplay:10.37,2013-07-25 08:10:00,
2013-07-25 04:15:00,68.6,65.9,29.82,SSW,193,3.0,8.0,91,0.00,SCT,SCT,0.00,0.0,WeatherDisplay:10.37,2013-07-25 08:15:00,
2013-07-25 04:20:00,68.6,65.9,29.82,South,190,2.0,6.0,91,0.00,SCT,SCT,0.00,0.0,WeatherDisplay:10.37,2013-07-25 08:20:00,
2013-07-25 04:25:00,68.6,65.9,29.83,South,184,3.0,5.0,91,0.00,SCT,SCT,0.00,0.0,WeatherDisplay:10.37,2013-07-25 08:25:00,
2013-07-25 04:30:00,68.6,65.9,29.83,SSE,149,5.0,8.0,91,0.00,SCT,SCT,0.00,0.0,WeatherDisplay:10.37,2013-07-25 08:30:00,
2013-07-25 04:35:00,68.5,65.8,29.83,East,79,5.0,9.0,91,0.00,SCT,SCT,0.00,0.0,WeatherDisplay:10.37,2013-07-25 08:35:00,
2013-07-25 04:40:00,68.5,65.7,29.83,NE,46,3.0,6.0,91,0.00,SCT,SCT,0.00,0.0,WeatherDisplay:10.37,2013-07-25 08:40:00,
2013-07-25 04:45:00,68.4,65.6,29.83,NE,40,3.0,8.0,91,0.00,SCT,SCT,0.00,0.0,WeatherDisplay:10.37,2013-07-25 08:45:00,
2013-07-25 04:50:00,68.1,65.1,29.84,NE,48,6.0,10.0,90,0.00,SCT,SCT,0.00,0.0,WeatherDisplay:10.37,2013-07-25 08:50:00,
2013-07-25 04:55:00,67.9,64.9,29.84,NE,44,5.0,12.0,90,0.00,SCT,SCT,0.00,0.0,WeatherDisplay:10.37,2013-07-25 08:55:00,
2013-07-25 05:00:00,67.8,64.8,29.84,NE,43,3.0,12.0,90,0.00,SCT,SCT,0.00,0.0,WeatherDisplay:10.37,2013-07-25 09:00:00,
2013-07-25 05:05:00,67.6,64.6,29.84,NE,46,3.0,12.0,90,0.00,SCT,SCT,0.00,0.0,WeatherDisplay:10.37,2013-07-25 09:05:00,
2013-07-25 05:10:00,67.5,64.5,29.84,NE,40,3.0,8.0,90,0.00,SCT,SCT,0.00,0.0,WeatherDisplay:10.37,2013-07-25 09:10:00,
2013-07-25 05:15:00,67.4,64.4,29.84,NNE,29,3.0,9.0,90,0.00,SCT,SCT,0.00,0.0,WeatherDisplay:10.37,2013-07-25 09:15:00,
2013-07-25 05:20:00,67.2,63.8,29.85,NE,35,2.0,10.0,89,0.00,SCT,SCT,0.00,0.0,WeatherDisplay:10.37,2013-07-25 09:20:00,
2013-07-25 05:25:00,67.0,63.6,29.85,NE,43,3.0,9.0,89,0.00,SCT,SCT,0.00,0.0,WeatherDisplay:10.37,2013-07-25 09:25:00,
2013-07-25 05:30:00,66.8,63.5,29.85,NE,36,2.0,6.0,89,0.00,SCT,SCT,0.00,0.0,WeatherDisplay:10.37,2013-07-25 09:30:00,
2013-07-25 05:35:00,66.7,63.4,29.85,NNE,33,1.0,5.0,89,0.00,SCT,SCT,0.00,0.0,WeatherDisplay:10.37,2013-07-25 09:35:00,
2013-07-25 05:45:00,66.5,63.2,29.85,NNE,27,2.0,6.0,89,0.00,SCT,SCT,0.00,0.0,WeatherDisplay:10.37,2013-07-25 09:45:00,
2013-07-25 05:50:00,66.4,63.1,29.86,NNE,27,3.0,5.0,89,0.00,SCT,SCT,0.00,0.0,WeatherDisplay:10.37,2013-07-25 09:50:00,
2013-07-25 05:55:00,66.3,62.9,29.86,NNE,27,3.0,6.0,89,0.00,SCT,SCT,0.00,0.0,WeatherDisplay:10.37,2013-07-25 09:55:00,
2013-07-25 06:00:00,66.2,62.9,29.86,NNE,27,2.0,4.0,89,0.00,SCT,SCT,0.00,0.0,WeatherDisplay:10.37,2013-07-25 10:00:00,
2013-07-25 06:05:00,66.1,62.8,29.86,NNE,27,1.0,5.0,89,0.00,SCT,SCT,0.00,0.0,WeatherDisplay:10.37,2013-07-25 10:05:00,
2013-07-25 06:10:00,66.0,62.7,29.86,NNE,27,1.0,5.0,89,0.00,SCT,SCT,0.00,0.0,WeatherDisplay:10.37,2013-07-25 10:10:00,
2013-07-25 06:15:00,65.9,62.6,29.86,NNE,25,0.0,5.0,89,0.00,SCT,SCT,0.00,0.0,WeatherDisplay:10.37,2013-07-25 10:15:00,
2013-07-25 06:20:00,65.9,62.6,29.86,NNE,24,0.0,4.0,89,0.00,SCT,SCT,0.00,0.0,WeatherDisplay:10.37,2013-07-25 10:20:00,
2013-07-25 06:25:00,65.8,62.5,29.86,NNE,24,1.0,4.0,89,0.00,SCT,SCT,0.00,0.0,WeatherDisplay:10.37,2013-07-25 10:25:00,
2013-07-25 06:30:00,65.8,62.5,29.86,NNE,31,1.0,6.0,89,0.00,SCT,SCT,0.00,0.0,WeatherDisplay:10.37,2013-07-25 10:30:00,
2013-07-25 06:35:00,65.7,62.4,29.86,NE,35,0.0,5.0,89,0.00,SCT,SCT,0.00,5.0,WeatherDisplay:10.37,2013-07-25 10:35:00,
2013-07-25 06:40:00,65.7,62.4,29.86,NE,35,0.0,2.0,89,0.00,SCT,SCT,0.00,7.0,WeatherDisplay:10.37,2013-07-25 10:40:00,
2013-07-25 06:45:00,65.6,62.3,29.86,NE,35,1.0,3.0,89,0.00,SCT,SCT,0.00,9.0,WeatherDisplay:10.37,2013-07-25 10:45:00,
2013-07-25 06:50:00,65.6,62.3,29.87,NE,35,1.0,3.0,89,0.00,SCT,SCT,0.00,11.0,WeatherDisplay:10.37,2013-07-25 10:50:00,
2013-07-25 06:55:00,65.6,62.6,29.87,NE,35,0.0,3.0,90,0.00,,SCT,0.00,12.0,WeatherDisplay:10.37,2013-07-25 10:55:00,
2013-07-25 07:00:00,65.6,62.6,29.87,NE,35,0.0,3.0,90,0.00,,SCT,0.00,16.0,WeatherDisplay:10.37,2013-07-25 11:00:00,
2013-07-25 07:05:00,65.6,62.6,29.87,NE,35,1.0,5.0,90,0.00,,SCT,0.00,19.0,WeatherDisplay:10.37,2013-07-25 11:05:00,
2013-07-25 07:10:00,65.7,62.7,29.87,NE,35,0.0,5.0,90,0.00,BKN,SCT,0.00,23.0,WeatherDisplay:10.37,2013-07-25 11:10:00,
2013-07-25 07:15:00,65.7,62.7,29.87,NE,35,1.0,4.0,90,0.00,BKN,SCT,0.00,25.0,WeatherDisplay:10.37,2013-07-25 11:15:00,
2013-07-25 07:20:00,65.9,62.9,29.87,NE,35,1.0,4.0,90,0.00,,SCT,0.00,26.0,WeatherDisplay:10.37,2013-07-25 11:20:00,
2013-07-25 07:25:00,66.0,63.0,29.88,NE,34,0.0,3.0,90,0.00,,SCT,0.00,28.0,WeatherDisplay:10.37,2013-07-25 11:25:00,
2013-07-25 07:30:00,66.2,63.2,29.88,NE,44,0.0,4.0,90,0.00,,SCT,0.00,32.0,WeatherDisplay:10.37,2013-07-25 11:30:00,
2013-07-25 07:35:00,66.4,63.4,29.88,East,84,0.0,3.0,90,0.00,,SCT,0.00,33.0,WeatherDisplay:10.37,2013-07-25 11:35:00,
2013-07-25 07:40:00,66.7,63.7,29.88,ESE,110,0.0,3.0,90,0.00,,SCT,0.00,35.0,WeatherDisplay:10.37,2013-07-25 11:40:00,
2013-07-25 07:45:00,66.9,63.9,29.88,ESE,110,0.0,5.0,90,0.00,,SCT,0.00,35.0,WeatherDisplay:10.37,2013-07-25 11:45:00,
2013-07-25 07:50:00,67.2,63.8,29.89,ESE,109,1.0,5.0,89,0.00,,SCT,0.00,37.0,WeatherDisplay:10.37,2013-07-25 11:50:00,
2013-07-25 07:55:00,67.5,64.2,29.89,ESE,109,2.0,5.0,89,0.00,,SCT,0.00,39.0,WeatherDisplay:10.37,2013-07-25 11:55:00,
2013-07-25 08:00:00,67.8,64.1,29.89,ESE,108,0.0,3.0,88,0.00,OVC,SCT,0.00,40.0,WeatherDisplay:10.37,2013-07-25 12:00:00,
2013-07-25 08:05:00,68.1,64.4,29.89,ENE,78,1.0,7.0,88,0.00,OVC,SCT,0.00,42.0,WeatherDisplay:10.37,2013-07-25 12:05:00,
2013-07-25 08:10:00,68.5,64.5,29.89,NE,51,1.0,4.0,87,0.00,OVC,SCT,0.00,42.0,WeatherDisplay:10.37,2013-07-25 12:10:00,
2013-07-25 08:15:00,68.8,64.5,29.89,NE,48,3.0,6.0,86,0.00,OVC,SCT,0.00,44.0,WeatherDisplay:10.37,2013-07-25 12:15:00,
2013-07-25 08:20:00,69.2,64.5,29.90,NE,36,2.0,6.0,85,0.00,OVC,SCT,0.00,46.0,WeatherDisplay:10.37,2013-07-25 12:20:00,
2013-07-25 08:25:00,69.5,64.5,29.90,NNE,31,1.0,4.0,84,0.00,OVC,SCT,0.00,47.0,WeatherDisplay:10.37,2013-07-25 12:25:00,
2013-07-25 08:30:00,69.8,64.4,29.90,NNE,28,1.0,6.0,83,0.00,OVC,SCT,0.00,49.0,WeatherDisplay:10.37,2013-07-25 12:30:00,
2013-07-25 08:35:00,70.1,64.4,29.90,NNE,28,1.0,4.0,82,0.00,OVC,SCT,0.00,49.0,WeatherDisplay:10.37,2013-07-25 12:35:00,
2013-07-25 08:40:00,70.4,64.7,29.90,NNE,28,2.0,5.0,82,0.00,OVC,SCT,0.00,51.0,WeatherDisplay:10.37,2013-07-25 12:40:00,
2013-07-25 08:45:00,70.7,64.2,29.90,NNE,32,1.0,7.0,80,0.00,OVC,SCT,0.00,53.0,WeatherDisplay:10.37,2013-07-25 12:45:00,
2013-07-25 08:50:00,71.0,64.2,29.90,NE,35,1.0,4.0,79,0.00,OVC,SCT,0.00,53.0,WeatherDisplay:10.37,2013-07-25 12:50:00,
2013-07-25 08:55:00,71.3,64.1,29.90,NE,36,3.0,7.0,78,0.00,OVC,SCT,0.00,54.0,WeatherDisplay:10.37,2013-07-25 12:55:00,
2013-07-25 09:00:00,71.6,64.4,29.91,NE,40,0.0,5.0,78,0.00,OVC,SCT,0.00,56.0,WeatherDisplay:10.37,2013-07-25 13:00:00,
2013-07-25 09:05:00,71.9,64.3,29.91,NE,40,1.0,6.0,77,0.00,OVC,SCT,0.00,58.0,WeatherDisplay:10.37,2013-07-25 13:05:00,
2013-07-25 09:10:00,72.2,64.6,29.91,NNE,28,2.0,6.0,77,0.00,OVC,SCT,0.00,60.0,WeatherDisplay:10.37,2013-07-25 13:10:00,
2013-07-25 09:15:00,72.5,64.1,29.91,NNE,15,3.0,7.0,75,0.00,OVC,SCT,0.00,62.0,WeatherDisplay:10.37,2013-07-25 13:15:00,
2013-07-25 09:20:00,72.8,64.4,29.91,North,10,3.0,5.0,75,0.00,OVC,SCT,0.00,63.0,WeatherDisplay:10.37,2013-07-25 13:20:00,
2013-07-25 09:25:00,73.1,64.7,29.91,NNE,12,3.0,6.0,75,0.00,OVC,SCT,0.00,65.0,WeatherDisplay:10.37,2013-07-25 13:25:00,
2013-07-25 09:30:00,73.3,64.9,29.91,NNE,16,2.0,6.0,75,0.00,OVC,SCT,0.00,67.0,WeatherDisplay:10.37,2013-07-25 13:30:00,
2013-07-25 09:35:00,73.6,64.8,29.91,NNE,18,1.0,6.0,74,0.00,OVC,SCT,0.00,69.0,WeatherDisplay:10.37,2013-07-25 13:35:00,
2013-07-25 09:40:00,73.9,64.3,29.91,NNE,18,3.0,8.0,72,0.00,OVC,SCT,0.00,70.0,WeatherDisplay:10.37,2013-07-25 13:40:00,
2013-07-25 09:45:00,74.2,64.6,29.91,NNE,21,2.0,6.0,72,0.00,OVC,SCT,0.00,72.0,WeatherDisplay:10.37,2013-07-25 13:45:00,
2013-07-25 09:50:00,74.3,64.3,29.91,NE,47,2.0,8.0,71,0.00,OVC,SCT,0.00,72.0,WeatherDisplay:10.37,2013-07-25 13:50:00,
2013-07-25 09:55:00,74.5,63.7,29.91,ENE,59,6.0,9.0,69,0.00,OVC,SCT,0.00,114.0,WeatherDisplay:10.37,2013-07-25 13:55:00,
2013-07-25 10:05:00,74.6,64.5,29.91,NE,53,6.0,9.0,71,0.00,SCT,SCT,0.00,533.0,WeatherDisplay:10.37,2013-07-25 14:05:00,
2013-07-25 10:10:00,74.7,64.7,29.91,NE,50,2.0,6.0,71,0.00,SCT,SCT,0.00,619.0,WeatherDisplay:10.37,2013-07-25 14:10:00,
2013-07-25 10:15:00,74.9,64.9,29.91,ENE,61,5.0,9.0,71,0.00,FEW,SCT,0.00,638.0,WeatherDisplay:10.37,2013-07-25 14:15:00,
2013-07-25 10:20:00,75.1,64.2,29.92,NE,52,6.0,9.0,69,0.00,FEW,SCT,0.00,636.0,WeatherDisplay:10.37,2013-07-25 14:20:00,
2013-07-25 10:25:00,75.2,64.7,29.92,NE,45,2.0,8.0,70,0.00,FEW,SCT,0.00,663.0,WeatherDisplay:10.37,2013-07-25 14:25:00,
2013-07-25 10:30:00,75.4,64.9,29.92,NNE,33,3.0,9.0,70,0.00,FEW,SCT,0.00,679.0,WeatherDisplay:10.37,2013-07-25 14:30:00,
2013-07-25 10:35:00,75.6,65.1,29.92,NNE,24,5.0,12.0,70,0.00,FEW,SCT,0.00,689.0,WeatherDisplay:10.37,2013-07-25 14:35:00,
2013-07-25 10:40:00,75.7,64.8,29.92,NNE,27,5.0,8.0,69,0.00,FEW,SCT,0.00,698.0,WeatherDisplay:10.37,2013-07-25 14:40:00,
2013-07-25 10:45:00,75.8,64.9,29.92,NE,39,3.0,7.0,69,0.00,FEW,SCT,0.00,712.0,WeatherDisplay:10.37,2013-07-25 14:45:00,
2013-07-25 10:50:00,75.9,65.0,29.92,NE,39,2.0,8.0,69,0.00,FEW,SCT,0.00,729.0,WeatherDisplay:10.37,2013-07-25 14:50:00,
2013-07-25 10:55:00,76.1,65.6,29.92,NNE,32,3.0,8.0,70,0.00,FEW,SCT,0.00,738.0,WeatherDisplay:10.37,2013-07-25 14:55:00,
2013-07-25 11:00:00,76.3,65.8,29.92,NNE,33,3.0,7.0,70,0.00,FEW,SCT,0.00,800.0,WeatherDisplay:10.37,2013-07-25 15:00:00,
2013-07-25 11:05:00,76.5,65.6,29.92,NE,36,3.0,6.0,69,0.00,FEW,SCT,0.00,784.0,WeatherDisplay:10.37,2013-07-25 15:05:00,
2013-07-25 11:10:00,76.7,65.8,29.92,NE,35,2.0,6.0,69,0.00,FEW,SCT,0.00,788.0,WeatherDisplay:10.37,2013-07-25 15:10:00,
2013-07-25 11:15:00,76.9,66.4,29.92,NE,38,1.0,6.0,70,0.00,FEW,SCT,0.00,877.0,WeatherDisplay:10.37,2013-07-25 15:15:00,
2013-07-25 11:20:00,77.2,66.7,29.92,NE,56,6.0,10.0,70,0.00,CLR,SCT,0.00,874.0,WeatherDisplay:10.37,2013-07-25 15:20:00,
2013-07-25 11:25:00,77.5,67.3,29.92,ENE,58,3.0,9.0,71,0.00,CLR,SCT,0.00,923.0,WeatherDisplay:10.37,2013-07-25 15:25:00,
2013-07-25 11:30:00,77.6,66.6,29.92,ENE,57,3.0,7.0,69,0.00,CLR,SCT,0.00,1004.0,WeatherDisplay:10.37,2013-07-25 15:30:00,
2013-07-25 11:35:00,77.8,66.8,29.92,ENE,64,5.0,9.0,69,0.00,CLR,SCT,0.00,988.0,WeatherDisplay:10.37,2013-07-25 15:35:00,
2013-07-25 11:40:00,77.8,66.8,29.92,East,87,6.0,7.0,69,0.00,CLR,SCT,0.00,1005.0,WeatherDisplay:10.37,2013-07-25 15:40:00,
2013-07-25 11:45:00,77.8,66.4,29.92,East,87,2.0,8.0,68,0.00,SCT,SCT,0.00,274.0,WeatherDisplay:10.37,2013-07-25 15:45:00,
2013-07-25 11:50:00,77.7,66.7,29.92,ENE,67,2.0,8.0,69,0.00,SCT,SCT,0.00,316.0,WeatherDisplay:10.37,2013-07-25 15:50:00,
2013-07-25 11:55:00,77.6,67.1,29.92,NE,56,1.0,6.0,70,0.00,SCT,SCT,0.00,1111.0,WeatherDisplay:10.37,2013-07-25 15:55:00,
2013-07-25 12:00:00,77.8,67.6,29.92,ENE,60,2.0,8.0,71,0.00,SCT,SCT,0.00,1071.0,WeatherDisplay:10.37,2013-07-25 16:00:00,
2013-07-25 12:05:00,77.8,67.2,29.92,ENE,70,5.0,9.0,70,0.00,CLR,SCT,0.00,1164.0,WeatherDisplay:10.37,2013-07-25 16:05:00,
2013-07-25 12:10:00,78.0,67.0,29.93,East,80,6.0,10.0,69,0.00,FEW,SCT,0.00,408.0,WeatherDisplay:10.37,2013-07-25 16:10:00,
2013-07-25 12:15:00,78.0,67.0,29.93,ENE,77,1.0,8.0,69,0.00,FEW,SCT,0.00,417.0,WeatherDisplay:10.37,2013-07-25 16:15:00,
2013-07-25 12:25:00,77.9,67.4,29.93,ENE,67,5.0,10.0,70,0.00,SCT,SCT,0.00,1190.0,WeatherDisplay:10.37,2013-07-25 16:25:00,
2013-07-25 12:30:00,78.0,67.0,29.93,ENE,65,3.0,8.0,69,0.00,FEW,SCT,0.00,455.0,WeatherDisplay:10.37,2013-07-25 16:30:00,
2013-07-25 12:35:00,78.0,66.6,29.93,ENE,62,6.0,10.0,68,0.00,SCT,SCT,0.00,302.0,WeatherDisplay:10.37,2013-07-25 16:35:00,
2013-07-25 12:45:00,77.6,67.0,29.93,ENE,57,1.0,5.0,70,0.00,BKN,SCT,0.00,371.0,WeatherDisplay:10.37,2013-07-25 16:45:00,
2013-07-25 12:50:00,77.3,66.4,29.93,ENE,58,6.0,8.0,69,0.00,BKN,SCT,0.00,330.0,WeatherDisplay:10.37,2013-07-25 16:50:00,
2013-07-25 12:55:00,77.0,66.9,29.93,ENE,61,2.0,7.0,71,0.00,BKN,SCT,0.00,1155.0,WeatherDisplay:10.37,2013-07-25 16:55:00,
2013-07-25 13:00:00,77.2,67.9,29.92,ENE,65,6.0,10.0,73,0.00,SCT,SCT,0.00,1155.0,WeatherDisplay:10.37,2013-07-25 17:00:00,
2013-07-25 13:05:00,77.3,66.8,29.92,ENE,66,3.0,9.0,70,0.00,CLR,SCT,0.00,1042.0,WeatherDisplay:10.37,2013-07-25 17:05:00,
2013-07-25 13:10:00,77.7,67.6,29.93,ENE,65,6.0,10.0,71,0.00,CLR,SCT,0.00,1153.0,WeatherDisplay:10.37,2013-07-25 17:10:00,
2013-07-25 13:15:00,77.8,66.8,29.92,ENE,66,2.0,8.0,69,0.00,SCT,SCT,0.00,297.0,WeatherDisplay:10.37,2013-07-25 17:15:00,
2013-07-25 13:20:00,78.0,67.8,29.92,ENE,75,3.0,10.0,71,0.00,SCT,SCT,0.00,1028.0,WeatherDisplay:10.37,2013-07-25 17:20:00,
2013-07-25 13:25:00,78.4,67.8,29.92,ENE,78,5.0,9.0,70,0.00,FEW,SCT,0.00,1074.0,WeatherDisplay:10.37,2013-07-25 17:25:00,
2013-07-25 13:30:00,78.7,68.1,29.92,ENE,76,5.0,12.0,70,0.00,CLR,SCT,0.00,1104.0,WeatherDisplay:10.37,2013-07-25 17:30:00,
2013-07-25 13:35:00,78.8,67.3,29.92,East,84,6.0,9.0,68,0.00,CLR,SCT,0.00,1120.0,WeatherDisplay:10.37,2013-07-25 17:35:00,
2013-07-25 13:40:00,78.7,67.2,29.92,East,83,3.0,8.0,68,0.00,CLR,SCT,0.00,1083.0,WeatherDisplay:10.37,2013-07-25 17:40:00,
2013-07-25 13:45:00,78.9,67.9,29.92,ENE,70,1.0,8.0,69,0.00,CLR,SCT,0.00,1171.0,WeatherDisplay:10.37,2013-07-25 17:45:00,
2013-07-25 13:50:00,79.1,67.6,29.92,ENE,65,3.0,7.0,68,0.00,FEW,SCT,0.00,339.0,WeatherDisplay:10.37,2013-07-25 17:50:00,
2013-07-25 13:55:00,78.9,67.4,29.93,East,87,1.0,6.0,68,0.00,SCT,SCT,0.00,1215.0,WeatherDisplay:10.37,2013-07-25 17:55:00,
2013-07-25 14:00:00,79.1,67.6,29.92,ESE,107,2.0,7.0,68,0.00,SCT,SCT,0.00,394.0,WeatherDisplay:10.37,2013-07-25 18:00:00,
2013-07-25 14:05:00,79.4,68.3,29.92,East,81,3.0,8.0,69,0.00,FEW,SCT,0.00,417.0,WeatherDisplay:10.37,2013-07-25 18:05:00,
2013-07-25 14:10:00,79.3,67.8,29.92,ENE,76,2.0,7.0,68,0.00,FEW,SCT,0.00,1143.0,WeatherDisplay:10.37,2013-07-25 18:10:00,
2013-07-25 14:15:00,79.4,68.3,29.92,ENE,71,3.0,8.0,69,0.00,FEW,SCT,0.00,1032.0,WeatherDisplay:10.37,2013-07-25 18:15:00,
2013-07-25 14:20:00,79.6,68.5,29.92,ENE,60,2.0,8.0,69,0.00,CLR,SCT,0.00,1042.0,WeatherDisplay:10.37,2013-07-25 18:20:00,
2013-07-25 14:25:00,79.8,67.4,29.92,NE,54,1.0,9.0,66,0.00,CLR,SCT,0.00,1023.0,WeatherDisplay:10.37,2013-07-25 18:25:00,
2013-07-25 14:30:00,80.0,68.1,29.92,NE,56,2.0,8.0,67,0.00,CLR,SCT,0.00,1092.0,WeatherDisplay:10.37,2013-07-25 18:30:00,
2013-07-25 14:35:00,80.2,68.7,29.92,ENE,63,2.0,8.0,68,0.00,CLR,SCT,0.00,1088.0,WeatherDisplay:10.37,2013-07-25 18:35:00,
2013-07-25 14:40:00,80.4,68.4,29.92,ENE,70,3.0,8.0,67,0.00,CLR,SCT,0.00,1056.0,WeatherDisplay:10.37,2013-07-25 18:40:00,
2013-07-25 14:45:00,80.5,68.1,29.92,ENE,70,1.0,5.0,66,0.00,CLR,SCT,0.00,1011.0,WeatherDisplay:10.37,2013-07-25 18:45:00,
2013-07-25 14:50:00,80.7,67.8,29.92,ENE,69,3.0,7.0,65,0.00,CLR,SCT,0.00,1044.0,WeatherDisplay:10.37,2013-07-25 18:50:00,
2013-07-25 14:55:00,80.7,68.3,29.92,ENE,68,2.0,7.0,66,0.00,CLR,SCT,0.00,1132.0,WeatherDisplay:10.37,2013-07-25 18:55:00,
2013-07-25 15:00:00,80.7,68.3,29.92,ENE,67,2.0,7.0,66,0.00,SCT,SCT,0.00,330.0,WeatherDisplay:10.37,2013-07-25 19:00:00,
2013-07-25 15:05:00,80.6,68.2,29.92,ENE,65,2.0,7.0,66,0.00,SCT,SCT,0.00,993.0,WeatherDisplay:10.37,2013-07-25 19:05:00,
2013-07-25 15:10:00,80.9,68.5,29.92,ENE,61,2.0,5.0,66,0.00,FEW,SCT,0.00,977.0,WeatherDisplay:10.37,2013-07-25 19:10:00,
2013-07-25 15:15:00,81.2,68.3,29.91,ENE,59,2.0,4.0,65,0.00,CLR,SCT,0.00,1004.0,WeatherDisplay:10.37,2013-07-25 19:15:00,
2013-07-25 15:20:00,81.2,69.2,29.91,ENE,59,2.0,5.0,67,0.00,FEW,SCT,0.00,1020.0,WeatherDisplay:10.37,2013-07-25 19:20:00,
2013-07-25 15:30:00,81.3,68.4,29.91,ENE,76,2.0,7.0,65,0.00,CLR,SCT,0.00,960.0,WeatherDisplay:10.37,2013-07-25 19:30:00,
2013-07-25 15:35:00,81.4,68.0,29.92,East,79,2.0,5.0,64,0.00,CLR,SCT,0.00,960.0,WeatherDisplay:10.37,2013-07-25 19:35:00,
2013-07-25 15:40:00,81.6,67.8,29.92,East,80,1.0,8.0,63,0.00,CLR,SCT,0.00,947.0,WeatherDisplay:10.37,2013-07-25 19:40:00,
2013-07-25 15:45:00,81.9,68.5,29.92,East,84,2.0,5.0,64,0.00,CLR,SCT,0.00,940.0,WeatherDisplay:10.37,2013-07-25 19:45:00,
2013-07-25 15:50:00,82.2,69.2,29.92,East,80,3.0,7.0,65,0.00,CLR,SCT,0.00,923.0,WeatherDisplay:10.37,2013-07-25 19:50:00,
2013-07-25 15:55:00,82.3,68.4,29.92,ENE,73,2.0,8.0,63,0.00,CLR,SCT,0.00,879.0,WeatherDisplay:10.37,2013-07-25 19:55:00,
2013-07-25 16:05:00,82.1,67.8,29.92,ENE,75,1.0,3.0,62,0.00,CLR,SCT,0.00,796.0,WeatherDisplay:10.37,2013-07-25 20:05:00,
2013-07-25 16:10:00,82.1,67.3,29.92,ENE,76,1.0,5.0,61,0.00,CLR,SCT,0.00,782.0,WeatherDisplay:10.37,2013-07-25 20:10:00,
2013-07-25 16:15:00,82.2,67.9,29.92,ENE,76,3.0,5.0,62,0.00,CLR,SCT,0.00,893.0,WeatherDisplay:10.37,2013-07-25 20:15:00,
2013-07-25 16:20:00,82.1,66.4,29.91,ENE,76,0.0,3.0,59,0.00,FEW,SCT,0.00,413.0,WeatherDisplay:10.37,2013-07-25 20:20:00,
2013-07-25 16:30:00,82.1,66.9,29.91,ENE,78,2.0,6.0,60,0.00,BKN,SCT,0.00,246.0,WeatherDisplay:10.37,2013-07-25 20:30:00,
2013-07-25 16:35:00,81.6,67.3,29.92,East,80,2.0,7.0,62,0.00,BKN,SCT,0.00,387.0,WeatherDisplay:10.37,2013-07-25 20:35:00,
2013-07-25 16:40:00,81.2,68.3,29.91,East,80,0.0,2.0,65,0.00,BKN,SCT,0.00,325.0,WeatherDisplay:10.37,2013-07-25 20:40:00,
2013-07-25 16:45:00,80.8,67.9,29.91,East,80,1.0,5.0,65,0.00,BKN,SCT,0.00,229.0,WeatherDisplay:10.37,2013-07-25 20:45:00,
2013-07-25 16:50:00,80.5,68.1,29.91,East,80,1.0,5.0,66,0.00,BKN,SCT,0.00,387.0,WeatherDisplay:10.37,2013-07-25 20:50:00,
2013-07-25 16:55:00,80.2,67.8,29.91,East,80,2.0,3.0,66,0.00,SCT,SCT,0.00,555.0,WeatherDisplay:10.37,2013-07-25 20:55:00,
2013-07-25 17:00:00,80.3,67.0,29.91,East,80,3.0,5.0,64,0.00,FEW,SCT,0.00,737.0,WeatherDisplay:10.37,2013-07-25 21:00:00,
2013-07-25 17:05:00,80.4,67.1,29.91,East,80,2.0,6.0,64,0.00,CLR,SCT,0.00,652.0,WeatherDisplay:10.37,2013-07-25 21:05:00,
2013-07-25 17:10:00,80.5,66.7,29.91,East,80,1.0,6.0,63,0.00,FEW,SCT,0.00,392.0,WeatherDisplay:10.37,2013-07-25 21:10:00,
2013-07-25 17:20:00,80.7,67.8,29.91,East,93,3.0,7.0,65,0.00,FEW,SCT,0.00,687.0,WeatherDisplay:10.37,2013-07-25 21:20:00,
2013-07-25 17:25:00,80.9,67.6,29.91,East,94,1.0,5.0,64,0.00,CLR,SCT,0.00,677.0,WeatherDisplay:10.37,2013-07-25 21:25:00,
2013-07-25 17:30:00,81.2,68.7,29.91,East,94,1.0,5.0,66,0.00,CLR,SCT,0.00,628.0,WeatherDisplay:10.37,2013-07-25 21:30:00,
2013-07-25 17:35:00,81.2,67.9,29.91,East,94,1.0,5.0,64,0.00,FEW,SCT,0.00,213.0,WeatherDisplay:10.37,2013-07-25 21:35:00,
2013-07-25 17:45:00,81.1,68.2,29.91,East,94,0.0,5.0,65,0.00,FEW,SCT,0.00,200.0,WeatherDisplay:10.37,2013-07-25 21:45:00,
2013-07-25 17:50:00,81.0,67.6,29.91,East,94,0.0,5.0,64,0.00,SCT,SCT,0.00,137.0,WeatherDisplay:10.37,2013-07-25 21:50:00,
2013-07-25 17:55:00,80.7,66.9,29.91,East,94,1.0,3.0,63,0.00,BKN,SCT,0.00,229.0,WeatherDisplay:10.37,2013-07-25 21:55:00,
2013-07-25 18:00:00,80.5,68.1,29.92,East,94,3.0,6.0,66,0.00,SCT,SCT,0.00,318.0,WeatherDisplay:10.37,2013-07-25 22:00:00,
2013-07-25 18:05:00,80.2,67.8,29.92,East,94,2.0,5.0,66,0.00,SCT,SCT,0.00,494.0,WeatherDisplay:10.37,2013-07-25 22:05:00,
2013-07-25 18:10:00,80.0,67.6,29.91,East,94,2.0,5.0,66,0.00,FEW,SCT,0.00,480.0,WeatherDisplay:10.37,2013-07-25 22:10:00,
2013-07-25 18:20:00,80.1,67.3,29.92,East,97,1.0,7.0,65,0.00,CLR,SCT,0.00,302.0,WeatherDisplay:10.37,2013-07-25 22:20:00,
2013-07-25 18:25:00,80.2,67.8,29.92,East,99,1.0,7.0,66,0.00,CLR,SCT,0.00,367.0,WeatherDisplay:10.37,2013-07-25 22:25:00,
2013-07-25 18:30:00,80.2,67.8,29.92,East,100,1.0,6.0,66,0.00,CLR,SCT,0.00,364.0,WeatherDisplay:10.37,2013-07-25 22:30:00,
2013-07-25 18:35:00,80.2,68.2,29.92,East,101,1.0,5.0,67,0.00,FEW,SCT,0.00,237.0,WeatherDisplay:10.37,2013-07-25 22:35:00,
2013-07-25 18:40:00,80.2,68.2,29.92,East,101,0.0,3.0,67,0.00,CLR,SCT,0.00,378.0,WeatherDisplay:10.37,2013-07-25 22:40:00,
2013-07-25 18:45:00,80.2,68.7,29.92,East,101,0.0,2.0,68,0.00,CLR,SCT,0.00,392.0,WeatherDisplay:10.37,2013-07-25 22:45:00,
2013-07-25 18:50:00,80.3,68.8,29.92,East,101,2.0,5.0,68,0.00,CLR,SCT,0.00,338.0,WeatherDisplay:10.37,2013-07-25 22:50:00,
2013-07-25 18:55:00,80.3,68.8,29.93,East,101,2.0,3.0,68,0.00,CLR,SCT,0.00,149.0,WeatherDisplay:10.37,2013-07-25 22:55:00,
2013-07-25 19:00:00,80.1,68.1,29.93,East,101,1.0,5.0,67,0.00,SCT,SCT,0.00,65.0,WeatherDisplay:10.37,2013-07-25 23:00:00,
2013-07-25 19:05:00,79.7,67.3,29.93,East,101,1.0,3.0,66,0.00,BKN,SCT,0.00,54.0,WeatherDisplay:10.37,2013-07-25 23:05:00,
2013-07-25 19:10:00,79.4,67.9,29.93,East,101,0.0,2.0,68,0.00,,SCT,0.00,44.0,WeatherDisplay:10.37,2013-07-25 23:10:00,
2013-07-25 19:15:00,79.1,68.5,29.93,SE,124,0.0,2.0,70,0.00,,SCT,0.00,44.0,WeatherDisplay:10.37,2013-07-25 23:15:00,
2013-07-25 19:20:00,78.8,68.2,29.93,SSE,150,0.0,1.0,70,0.00,,SCT,0.00,42.0,WeatherDisplay:10.37,2013-07-25 23:20:00,
2013-07-25 19:25:00,78.5,68.3,29.94,SSE,159,0.0,2.0,71,0.00,,SCT,0.00,39.0,WeatherDisplay:10.37,2013-07-25 23:25:00,
2013-07-25 19:30:00,78.2,68.4,29.94,SSE,159,0.0,1.0,72,0.00,,SCT,0.00,39.0,WeatherDisplay:10.37,2013-07-25 23:30:00,
2013-07-25 19:35:00,77.8,68.4,29.94,SSE,159,0.0,1.0,73,0.00,BKN,SCT,0.00,47.0,WeatherDisplay:10.37,2013-07-25 23:35:00,
2013-07-25 19:40:00,77.7,68.7,29.94,SSE,159,0.0,2.0,74,0.00,SCT,SCT,0.00,81.0,WeatherDisplay:10.37,2013-07-25 23:40:00,
2013-07-25 19:45:00,77.2,67.9,29.94,SSE,159,0.0,2.0,73,0.00,SCT,SCT,0.00,91.0,WeatherDisplay:10.37,2013-07-25 23:45:00,
2013-07-25 19:50:00,76.9,68.0,29.94,SSE,159,0.0,1.0,74,0.00,FEW,SCT,0.00,86.0,WeatherDisplay:10.37,2013-07-25 23:50:00,
2013-07-25 19:55:00,76.7,68.2,29.94,SSE,159,0.0,2.0,75,0.00,FEW,SCT,0.00,77.0,WeatherDisplay:10.37,2013-07-25 23:55:00,
2013-07-25 20:00:00,76.6,68.5,29.94,SSE,159,0.0,2.0,76,0.00,SCT,SCT,0.00,46.0,WeatherDisplay:10.37,2013-07-26 00:00:00,
2013-07-25 20:05:00,76.4,68.3,29.94,SSE,159,0.0,1.0,76,0.00,BKN,SCT,0.00,35.0,WeatherDisplay:10.37,2013-07-26 00:05:00,
2013-07-25 20:10:00,76.2,68.5,29.94,SSE,159,0.0,2.0,77,0.00,BKN,SCT,0.00,21.0,WeatherDisplay:10.37,2013-07-26 00:10:00,
2013-07-25 20:15:00,76.0,68.3,29.94,SSE,158,0.0,2.0,77,0.00,BKN,SCT,0.00,12.0,WeatherDisplay:10.37,2013-07-26 00:15:00,
2013-07-25 20:20:00,75.7,68.0,29.94,SSE,158,0.0,0.0,77,0.00,BKN,SCT,0.00,11.0,WeatherDisplay:10.37,2013-07-26 00:20:00,
2013-07-25 20:25:00,75.5,67.8,29.94,SSE,158,0.0,0.0,77,0.00,BKN,SCT,0.00,7.0,WeatherDisplay:10.37,2013-07-26 00:25:00,
2013-07-25 20:30:00,75.2,67.9,29.95,SSE,158,0.0,0.0,78,0.00,BKN,SCT,0.00,5.0,WeatherDisplay:10.37,2013-07-26 00:30:00,
2013-07-25 20:35:00,75.0,68.1,29.95,SSE,158,0.0,0.0,79,0.00,BKN,SCT,0.00,0.0,WeatherDisplay:10.37,2013-07-26 00:35:00,
2013-07-25 20:40:00,74.8,67.8,29.95,SSE,158,0.0,0.0,79,0.00,BKN,SCT,0.00,0.0,WeatherDisplay:10.37,2013-07-26 00:40:00,
2013-07-25 20:45:00,74.6,68.0,29.95,SSE,158,0.0,0.0,80,0.00,BKN,SCT,0.00,0.0,WeatherDisplay:10.37,2013-07-26 00:45:00,
2013-07-25 20:50:00,74.3,67.8,29.95,SSE,158,0.0,0.0,80,0.00,BKN,SCT,0.00,0.0,WeatherDisplay:10.37,2013-07-26 00:50:00,
2013-07-25 20:55:00,74.1,67.5,29.95,SSE,158,0.0,0.0,80,0.00,BKN,SCT,0.00,0.0,WeatherDisplay:10.37,2013-07-26 00:55:00,
2013-07-25 21:00:00,73.9,67.7,29.95,SSE,158,0.0,0.0,81,0.00,BKN,SCT,0.00,0.0,WeatherDisplay:10.37,2013-07-26 01:00:00,
2013-07-25 21:05:00,73.6,67.4,29.96,SSE,158,0.0,0.0,81,0.00,BKN,SCT,0.00,0.0,WeatherDisplay:10.37,2013-07-26 01:05:00,
2013-07-25 21:10:00,73.2,67.1,29.96,SSE,158,0.0,0.0,81,0.00,BKN,SCT,0.00,0.0,WeatherDisplay:10.37,2013-07-26 01:10:00,
2013-07-25 21:15:00,73.0,67.2,29.96,SSE,158,0.0,0.0,82,0.00,BKN,SCT,0.00,0.0,WeatherDisplay:10.37,2013-07-26 01:15:00,
2013-07-25 21:20:00,72.7,67.3,29.97,SSE,158,0.0,0.0,83,0.00,BKN,SCT,0.00,0.0,WeatherDisplay:10.37,2013-07-26 01:20:00,
2013-07-25 21:25:00,72.4,67.3,29.97,SSE,158,0.0,0.0,84,0.00,BKN,SCT,0.00,0.0,WeatherDisplay:10.37,2013-07-26 01:25:00,
2013-07-25 21:30:00,72.1,67.0,29.97,SSE,158,0.0,0.0,84,0.00,BKN,SCT,0.00,0.0,WeatherDisplay:10.37,2013-07-26 01:30:00,
2013-07-25 21:35:00,71.9,67.1,29.97,SSE,158,0.0,0.0,85,0.00,BKN,SCT,0.00,0.0,WeatherDisplay:10.37,2013-07-26 01:35:00,
2013-07-25 21:40:00,71.7,66.9,29.97,SSE,158,0.0,0.0,85,0.00,BKN,SCT,0.00,0.0,WeatherDisplay:10.37,2013-07-26 01:40:00,
2013-07-25 21:45:00,71.5,66.7,29.97,SSE,158,0.0,0.0,85,0.00,BKN,SCT,0.00,0.0,WeatherDisplay:10.37,2013-07-26 01:45:00,
2013-07-25 21:50:00,71.2,66.5,29.98,SSE,158,0.0,0.0,85,0.00,BKN,SCT,0.00,0.0,WeatherDisplay:10.37,2013-07-26 01:50:00,
2013-07-25 21:55:00,71.1,66.4,29.98,SSE,158,0.0,0.0,85,0.00,BKN,SCT,0.00,0.0,WeatherDisplay:10.37,2013-07-26 01:55:00,
2013-07-25 22:00:00,70.9,66.2,29.98,SSE,158,0.0,0.0,85,0.00,BKN,SCT,0.00,0.0,WeatherDisplay:10.37,2013-07-26 02:00:00,
2013-07-25 22:05:00,70.8,66.4,29.99,SSE,158,0.0,0.0,86,0.00,BKN,SCT,0.00,0.0,WeatherDisplay:10.37,2013-07-26 02:05:00,
2013-07-25 22:10:00,70.6,66.2,29.99,SSE,158,0.0,0.0,86,0.00,BKN,SCT,0.00,0.0,WeatherDisplay:10.37,2013-07-26 02:10:00,
2013-07-25 22:15:00,70.5,66.4,29.99,SSE,158,0.0,0.0,87,0.00,BKN,SCT,0.00,0.0,WeatherDisplay:10.37,2013-07-26 02:15:00,
2013-07-25 22:20:00,70.4,66.3,29.99,SSE,158,0.0,0.0,87,0.00,BKN,SCT,0.00,0.0,WeatherDisplay:10.37,2013-07-26 02:20:00,
2013-07-25 22:25:00,70.3,66.2,29.99,SSE,158,0.0,0.0,87,0.00,BKN,SCT,0.00,0.0,WeatherDisplay:10.37,2013-07-26 02:25:00,
2013-07-25 22:30:00,70.1,66.1,29.99,SSE,158,0.0,0.0,87,0.00,BKN,SCT,0.00,0.0,WeatherDisplay:10.37,2013-07-26 02:30:00,
2013-07-25 22:35:00,70.1,66.0,29.99,SSE,158,0.0,0.0,87,0.00,BKN,SCT,0.00,0.0,WeatherDisplay:10.37,2013-07-26 02:35:00,
2013-07-25 22:40:00,69.9,65.9,30.00,SSE,158,0.0,0.0,87,0.00,BKN,SCT,0.00,0.0,WeatherDisplay:10.37,2013-07-26 02:40:00,
2013-07-25 22:45:00,69.9,66.1,30.00,SSE,158,0.0,0.0,88,0.00,BKN,SCT,0.00,0.0,WeatherDisplay:10.37,2013-07-26 02:45:00,
2013-07-25 22:50:00,69.8,65.8,30.00,SSE,158,0.0,0.0,87,0.00,BKN,SCT,0.00,0.0,WeatherDisplay:10.37,2013-07-26 02:50:00,
2013-07-25 22:55:00,69.7,65.7,30.00,SSE,158,0.0,0.0,87,0.00,BKN,SCT,0.00,0.0,WeatherDisplay:10.37,2013-07-26 02:55:00,
2013-07-25 23:00:00,69.6,65.9,30.00,SSE,158,0.0,0.0,88,0.00,BKN,SCT,0.00,0.0,WeatherDisplay:10.37,2013-07-26 03:00:00,
2013-07-25 23:05:00,69.6,65.9,30.00,SSE,158,0.0,0.0,88,0.00,BKN,SCT,0.00,0.0,WeatherDisplay:10.37,2013-07-26 03:05:00,
2013-07-25 23:10:00,69.6,65.9,30.00,SSE,158,0.0,0.0,88,0.00,BKN,SCT,0.00,0.0,WeatherDisplay:10.37,2013-07-26 03:10:00,
2013-07-25 23:15:00,69.6,65.9,30.00,SSE,158,0.0,0.0,88,0.00,BKN,SCT,0.00,0.0,WeatherDisplay:10.37,2013-07-26 03:15:00,
2013-07-25 23:20:00,69.6,66.2,30.00,SSE,158,0.0,0.0,89,0.00,BKN,SCT,0.00,0.0,WeatherDisplay:10.37,2013-07-26 03:20:00,
2013-07-25 23:25:00,69.6,66.2,30.00,SSE,158,0.0,0.0,89,0.00,BKN,SCT,0.00,0.0,WeatherDisplay:10.37,2013-07-26 03:25:00,
2013-07-25 23:30:00,69.5,66.2,30.00,SSE,158,0.0,0.0,89,0.00,BKN,SCT,0.00,0.0,WeatherDisplay:10.37,2013-07-26 03:30:00,
2013-07-25 23:35:00,69.5,66.1,30.00,SSE,158,0.0,0.0,89,0.00,BKN,SCT,0.00,0.0,WeatherDisplay:10.37,2013-07-26 03:35:00,
2013-07-25 23:40:00,69.5,66.1,30.00,SSE,158,0.0,0.0,89,0.00,BKN,SCT,0.00,0.0,WeatherDisplay:10.37,2013-07-26 03:40:00,
2013-07-25 23:45:00,69.5,66.1,30.00,SSE,158,0.0,0.0,89,0.00,BKN,SCT,0.00,0.0,WeatherDisplay:10.37,2013-07-26 03:45:00,
2013-07-25 23:50:00,69.5,66.1,30.01,SSE,158,0.0,0.0,89,0.00,BKN,SCT,0.00,0.0,WeatherDisplay:10.37,2013-07-26 03:50:00,
2013-07-25 23:55:00,69.5,66.1,30.00,SSE,158,0.0,0.0,89,0.00,BKN,SCT,0.00,0.0,WeatherDisplay:10.37,2013-07-26 03:55:00,